sensor_id;sensor_type;location;lat;lon;timestamp;P1;durP1;ratioP1;P2;durP2;ratioP2
27863;SDS011;15980;51.092;13.916;2023-02-07T00:08:28;48.20;;;17.48;;
27863;SDS011;15980;51.092;13.916;2023-02-07T00:18:28;52.25;;;18.55;;
27863;SDS011;15980;51.092;13.916;2023-02-07T00:28:29;39.38;;;15.88;;
27863;SDS011;15980;51.092;13.916;2023-02-07T00:38:29;38.70;;;17.73;;
27863;SDS011;15980;51.092;13.916;2023-02-07T00:48:30;49.50;;;16.10;;
27863;SDS011;15980;51.092;13.916;2023-02-07T00:58:30;40.40;;;16.27;;
27863;SDS011;15980;51.092;13.916;2023-02-07T01:08:31;49.63;;;16.27;;
27863;SDS011;15980;51.092;13.916;2023-02-07T01:18:31;36.50;;;15.10;;
27863;SDS011;15980;51.092;13.916;2023-02-07T01:28:31;52.75;;;16.67;;
27863;SDS011;15980;51.092;13.916;2023-02-07T01:38:32;36.88;;;14.20;;
27863;SDS011;15980;51.092;13.916;2023-02-07T01:48:33;37.15;;;14.48;;
27863;SDS011;15980;51.092;13.916;2023-02-07T01:58:35;37.42;;;13.93;;
27863;SDS011;15980;51.092;13.916;2023-02-07T02:08:37;44.53;;;14.95;;
27863;SDS011;15980;51.092;13.916;2023-02-07T02:18:41;33.70;;;11.73;;
27863;SDS011;15980;51.092;13.916;2023-02-07T02:39:44;43.22;;;15.50;;
27863;SDS011;15980;51.092;13.916;2023-02-07T02:49:50;48.78;;;13.90;;
27863;SDS011;15980;51.092;13.916;2023-02-07T03:30:13;41.38;;;14.55;;
27863;SDS011;15980;51.092;13.916;2023-02-07T03:40:17;38.10;;;14.90;;
27863;SDS011;15980;51.092;13.916;2023-02-07T04:00:18;51.72;;;15.00;;
27863;SDS011;15980;51.092;13.916;2023-02-07T04:10:19;45.40;;;16.10;;
27863;SDS011;15980;51.092;13.916;2023-02-07T04:20:19;29.83;;;10.93;;
27863;SDS011;15980;51.092;13.916;2023-02-07T04:30:19;25.20;;;11.30;;
27863;SDS011;15980;51.092;13.916;2023-02-07T04:40:20;33.20;;;11.53;;
27863;SDS011;15980;51.092;13.916;2023-02-07T04:50:20;26.30;;;10.43;;
27863;SDS011;15980;51.092;13.916;2023-02-07T05:00:20;35.67;;;11.30;;
27863;SDS011;15980;51.092;13.916;2023-02-07T05:10:21;36.07;;;14.53;;
27863;SDS011;15980;51.092;13.916;2023-02-07T05:20:21;29.57;;;11.43;;
27863;SDS011;15980;51.092;13.916;2023-02-07T05:30:22;40.90;;;15.10;;
27863;SDS011;15980;51.092;13.916;2023-02-07T05:40:22;42.58;;;15.18;;
27863;SDS011;15980;51.092;13.916;2023-02-07T05:50:23;33.20;;;11.90;;
27863;SDS011;15980;51.092;13.916;2023-02-07T06:00:24;39.58;;;14.68;;
27863;SDS011;15980;51.092;13.916;2023-02-07T06:10:24;43.83;;;15.40;;
27863;SDS011;15980;51.092;13.916;2023-02-07T06:20:24;44.00;;;15.77;;
27863;SDS011;15980;51.092;13.916;2023-02-07T06:30:25;39.47;;;14.67;;
27863;SDS011;15980;51.092;13.916;2023-02-07T06:40:25;37.63;;;12.87;;
27863;SDS011;15980;51.092;13.916;2023-02-07T06:50:25;47.33;;;16.17;;
27863;SDS011;15980;51.092;13.916;2023-02-07T07:00:25;71.40;;;21.67;;
27863;SDS011;15980;51.092;13.916;2023-02-07T07:10:26;65.23;;;20.73;;
27863;SDS011;15980;51.092;13.916;2023-02-07T07:20:26;57.27;;;21.70;;
27863;SDS011;15980;51.092;13.916;2023-02-07T07:30:27;53.00;;;16.05;;
27863;SDS011;15980;51.092;13.916;2023-02-07T07:40:28;54.10;;;18.98;;
27863;SDS011;15980;51.092;13.916;2023-02-07T07:50:28;47.53;;;17.60;;
27863;SDS011;15980;51.092;13.916;2023-02-07T08:00:29;57.25;;;20.13;;
27863;SDS011;15980;51.092;13.916;2023-02-07T08:10:29;47.97;;;17.08;;
27863;SDS011;15980;51.092;13.916;2023-02-07T08:20:30;62.22;;;21.48;;
27863;SDS011;15980;51.092;13.916;2023-02-07T08:30:30;74.33;;;24.13;;
27863;SDS011;15980;51.092;13.916;2023-02-07T08:40:31;75.40;;;25.47;;
27863;SDS011;15980;51.092;13.916;2023-02-07T08:50:31;57.70;;;24.80;;
27863;SDS011;15980;51.092;13.916;2023-02-07T09:00:32;49.95;;;20.38;;
27863;SDS011;15980;51.092;13.916;2023-02-07T09:10:32;54.47;;;20.38;;
27863;SDS011;15980;51.092;13.916;2023-02-07T09:20:32;48.17;;;18.35;;
27863;SDS011;15980;51.092;13.916;2023-02-07T09:30:33;52.72;;;20.98;;
27863;SDS011;15980;51.092;13.916;2023-02-07T09:40:33;52.13;;;18.90;;
27863;SDS011;15980;51.092;13.916;2023-02-07T09:50:35;45.77;;;18.53;;
27863;SDS011;15980;51.092;13.916;2023-02-07T10:00:41;56.13;;;19.40;;
27863;SDS011;15980;51.092;13.916;2023-02-07T10:10:49;44.72;;;18.80;;
27863;SDS011;15980;51.092;13.916;2023-02-07T10:31:20;48.60;;;16.15;;
27863;SDS011;15980;51.092;13.916;2023-02-07T10:51:35;37.90;;;13.88;;
27863;SDS011;15980;51.092;13.916;2023-02-07T11:01:40;49.05;;;17.67;;
27863;SDS011;15980;51.092;13.916;2023-02-07T11:11:51;45.33;;;17.00;;
27863;SDS011;15980;51.092;13.916;2023-02-07T11:21:56;42.25;;;16.25;;
27863;SDS011;15980;51.092;13.916;2023-02-07T11:32:24;43.50;;;16.63;;
27863;SDS011;15980;51.092;13.916;2023-02-07T11:52:30;37.60;;;15.52;;
27863;SDS011;15980;51.092;13.916;2023-02-07T12:02:33;35.10;;;14.65;;
27863;SDS011;15980;51.092;13.916;2023-02-07T12:22:41;32.53;;;11.95;;
27863;SDS011;15980;51.092;13.916;2023-02-07T12:32:54;36.45;;;14.00;;
27863;SDS011;15980;51.092;13.916;2023-02-07T12:42:58;29.73;;;12.63;;
27863;SDS011;15980;51.092;13.916;2023-02-07T13:03:51;28.85;;;11.80;;
27863;SDS011;15980;51.092;13.916;2023-02-07T13:24:28;27.52;;;12.73;;
27863;SDS011;15980;51.092;13.916;2023-02-07T13:34:33;48.63;;;20.88;;
27863;SDS011;15980;51.092;13.916;2023-02-07T14:05:10;32.40;;;13.40;;
27863;SDS011;15980;51.092;13.916;2023-02-07T14:35:32;25.83;;;12.02;;
27863;SDS011;15980;51.092;13.916;2023-02-07T14:45:35;41.97;;;16.02;;
27863;SDS011;15980;51.092;13.916;2023-02-07T14:55:40;44.00;;;19.00;;
27863;SDS011;15980;51.092;13.916;2023-02-07T15:05:55;46.17;;;18.98;;
27863;SDS011;15980;51.092;13.916;2023-02-07T15:15:58;44.90;;;20.17;;
27863;SDS011;15980;51.092;13.916;2023-02-07T15:26:07;59.40;;;26.60;;
27863;SDS011;15980;51.092;13.916;2023-02-07T15:36:30;57.00;;;23.80;;
27863;SDS011;15980;51.092;13.916;2023-02-07T15:46:47;52.17;;;23.15;;
27863;SDS011;15980;51.092;13.916;2023-02-07T15:56:58;53.67;;;22.83;;
27863;SDS011;15980;51.092;13.916;2023-02-07T16:07:03;58.90;;;24.90;;
27863;SDS011;15980;51.092;13.916;2023-02-07T16:17:15;60.10;;;25.17;;
27863;SDS011;15980;51.092;13.916;2023-02-07T16:27:22;62.95;;;25.13;;
27863;SDS011;15980;51.092;13.916;2023-02-07T16:37:23;58.83;;;24.95;;
27863;SDS011;15980;51.092;13.916;2023-02-07T16:47:24;64.82;;;28.60;;
27863;SDS011;15980;51.092;13.916;2023-02-07T16:57:24;64.10;;;27.25;;
27863;SDS011;15980;51.092;13.916;2023-02-07T17:07:24;74.53;;;29.17;;
27863;SDS011;15980;51.092;13.916;2023-02-07T17:17:25;75.63;;;29.50;;
27863;SDS011;15980;51.092;13.916;2023-02-07T17:27:25;67.93;;;29.33;;
27863;SDS011;15980;51.092;13.916;2023-02-07T17:37:25;73.78;;;28.67;;
27863;SDS011;15980;51.092;13.916;2023-02-07T17:47:26;64.93;;;27.45;;
27863;SDS011;15980;51.092;13.916;2023-02-07T17:57:26;69.00;;;26.95;;
27863;SDS011;15980;51.092;13.916;2023-02-07T18:07:26;74.00;;;29.80;;
27863;SDS011;15980;51.092;13.916;2023-02-07T18:17:27;74.45;;;30.70;;
27863;SDS011;15980;51.092;13.916;2023-02-07T18:27:27;70.53;;;28.83;;
27863;SDS011;15980;51.092;13.916;2023-02-07T18:37:27;71.60;;;29.15;;
27863;SDS011;15980;51.092;13.916;2023-02-07T18:47:29;70.75;;;30.20;;
27863;SDS011;15980;51.092;13.916;2023-02-07T18:57:30;74.10;;;30.55;;
27863;SDS011;15980;51.092;13.916;2023-02-07T19:07:31;79.07;;;30.92;;
27863;SDS011;15980;51.092;13.916;2023-02-07T19:17:31;151.63;;;44.78;;
27863;SDS011;15980;51.092;13.916;2023-02-07T19:27:31;336.35;;;63.90;;
27863;SDS011;15980;51.092;13.916;2023-02-07T19:37:32;96.82;;;31.92;;
27863;SDS011;15980;51.092;13.916;2023-02-07T19:47:32;79.80;;;32.75;;
27863;SDS011;15980;51.092;13.916;2023-02-07T19:57:32;82.47;;;32.38;;
27863;SDS011;15980;51.092;13.916;2023-02-07T20:07:33;86.03;;;34.72;;
27863;SDS011;15980;51.092;13.916;2023-02-07T20:17:33;90.30;;;32.22;;
27863;SDS011;15980;51.092;13.916;2023-02-07T20:27:34;77.47;;;29.90;;
27863;SDS011;15980;51.092;13.916;2023-02-07T20:37:35;78.30;;;30.38;;
27863;SDS011;15980;51.092;13.916;2023-02-07T20:47:36;72.13;;;29.05;;
27863;SDS011;15980;51.092;13.916;2023-02-07T20:57:36;81.80;;;31.73;;
27863;SDS011;15980;51.092;13.916;2023-02-07T21:07:37;73.47;;;29.40;;
27863;SDS011;15980;51.092;13.916;2023-02-07T21:17:37;83.93;;;32.33;;
27863;SDS011;15980;51.092;13.916;2023-02-07T21:27:37;267.65;;;65.55;;
27863;SDS011;15980;51.092;13.916;2023-02-07T21:37:38;90.10;;;35.40;;
27863;SDS011;15980;51.092;13.916;2023-02-07T21:47:38;348.58;;;80.22;;
27863;SDS011;15980;51.092;13.916;2023-02-07T21:57:38;127.47;;;40.65;;
27863;SDS011;15980;51.092;13.916;2023-02-07T22:07:39;205.43;;;48.45;;
27863;SDS011;15980;51.092;13.916;2023-02-07T22:17:39;178.73;;;44.88;;
27863;SDS011;15980;51.092;13.916;2023-02-07T22:27:39;160.70;;;49.78;;
27863;SDS011;15980;51.092;13.916;2023-02-07T22:37:40;129.15;;;42.05;;
27863;SDS011;15980;51.092;13.916;2023-02-07T22:47:40;90.43;;;34.10;;
27863;SDS011;15980;51.092;13.916;2023-02-07T22:57:41;94.63;;;35.57;;
27863;SDS011;15980;51.092;13.916;2023-02-07T23:07:41;131.43;;;41.53;;
27863;SDS011;15980;51.092;13.916;2023-02-07T23:17:41;89.35;;;31.52;;
27863;SDS011;15980;51.092;13.916;2023-02-07T23:27:42;89.13;;;31.85;;
27863;SDS011;15980;51.092;13.916;2023-02-07T23:37:43;69.15;;;29.25;;
27863;SDS011;15980;51.092;13.916;2023-02-07T23:47:43;73.82;;;28.75;;
27863;SDS011;15980;51.092;13.916;2023-02-07T23:57:44;80.32;;;30.73;;
